sensor_id;sensor_type;location;lat;lon;timestamp;pressure;altitude;pressure_sealevel;temperature;humidity
52625;BME280;38519;52.540;13.410;2023-04-21T00:01:13;101103.88;;;9.80;100.00
52625;BME280;38519;52.540;13.410;2023-04-21T00:03:38;101101.59;;;9.73;100.00
52625;BME280;38519;52.540;13.410;2023-04-21T00:06:05;101101.31;;;9.70;100.00
52625;BME280;38519;52.540;13.410;2023-04-21T00:08:31;101101.97;;;9.78;100.00
52625;BME280;38519;52.540;13.410;2023-04-21T00:10:57;101103.81;;;9.69;100.00
52625;BME280;38519;52.540;13.410;2023-04-21T00:13:22;101104.63;;;9.57;100.00
52625;BME280;38519;52.540;13.410;2023-04-21T00:15:48;101102.53;;;9.53;100.00
52625;BME280;38519;52.540;13.410;2023-04-21T00:18:13;101103.59;;;9.45;100.00
52625;BME280;38519;52.540;13.410;2023-04-21T00:20:38;101110.22;;;9.52;100.00
52625;BME280;38519;52.540;13.410;2023-04-21T00:23:03;101102.25;;;9.60;100.00
52625;BME280;38519;52.540;13.410;2023-04-21T00:25:29;101102.25;;;9.50;100.00
52625;BME280;38519;52.540;13.410;2023-04-21T00:27:54;101102.53;;;9.53;100.00
52625;BME280;38519;52.540;13.410;2023-04-21T00:30:20;101098.63;;;9.48;100.00
52625;BME280;38519;52.540;13.410;2023-04-21T00:32:45;101101.25;;;9.48;100.00
52625;BME280;38519;52.540;13.410;2023-04-21T00:35:10;101094.72;;;9.43;100.00
52625;BME280;38519;52.540;13.410;2023-04-21T00:37:35;101095.94;;;9.36;100.00
52625;BME280;38519;52.540;13.410;2023-04-21T00:40:01;101096.56;;;9.34;100.00
52625;BME280;38519;52.540;13.410;2023-04-21T00:42:26;101095.13;;;9.37;100.00
52625;BME280;38519;52.540;13.410;2023-04-21T00:44:51;101090.84;;;9.27;100.00
52625;BME280;38519;52.540;13.410;2023-04-21T00:47:17;101087.31;;;9.37;100.00
52625;BME280;38519;52.540;13.410;2023-04-21T00:49:42;101088.22;;;9.27;100.00
52625;BME280;38519;52.540;13.410;2023-04-21T00:52:08;101089.28;;;9.19;100.00
52625;BME280;38519;52.540;13.410;2023-04-21T00:54:36;101082.91;;;9.16;100.00
52625;BME280;38519;52.540;13.410;2023-04-21T00:57:02;101084.63;;;9.15;100.00
52625;BME280;38519;52.540;13.410;2023-04-21T00:59:28;101085.00;;;9.09;100.00
52625;BME280;38519;52.540;13.410;2023-04-21T01:01:53;101080.56;;;9.08;100.00
52625;BME280;38519;52.540;13.410;2023-04-21T01:04:18;101080.97;;;9.03;100.00
52625;BME280;38519;52.540;13.410;2023-04-21T01:06:43;101076.13;;;9.18;100.00
52625;BME280;38519;52.540;13.410;2023-04-21T01:09:09;101077.31;;;9.21;100.00
52625;BME280;38519;52.540;13.410;2023-04-21T01:11:36;101080.03;;;9.23;100.00
52625;BME280;38519;52.540;13.410;2023-04-21T01:14:02;101077.81;;;9.27;100.00
52625;BME280;38519;52.540;13.410;2023-04-21T01:16:27;101082.41;;;9.20;100.00
52625;BME280;38519;52.540;13.410;2023-04-21T01:18:53;101077.81;;;9.27;100.00
52625;BME280;38519;52.540;13.410;2023-04-21T01:21:19;101081.47;;;9.19;100.00
52625;BME280;38519;52.540;13.410;2023-04-21T01:23:45;101082.91;;;9.16;100.00
52625;BME280;38519;52.540;13.410;2023-04-21T01:26:11;101081.34;;;9.07;100.00
52625;BME280;38519;52.540;13.410;2023-04-21T01:28:36;101078.63;;;9.06;100.00
52625;BME280;38519;52.540;13.410;2023-04-21T01:31:02;101076.66;;;9.14;100.00
52625;BME280;38519;52.540;13.410;2023-04-21T01:33:27;101071.97;;;9.09;100.00
52625;BME280;38519;52.540;13.410;2023-04-21T01:35:52;101072.88;;;9.10;100.00
52625;BME280;38519;52.540;13.410;2023-04-21T01:38:18;101073.94;;;9.12;100.00
52625;BME280;38519;52.540;13.410;2023-04-21T01:40:44;101069.09;;;9.06;100.00
52625;BME280;38519;52.540;13.410;2023-04-21T01:43:10;101076.00;;;8.96;100.00
52625;BME280;38519;52.540;13.410;2023-04-21T01:45:36;101065.06;;;9.10;100.00
52625;BME280;38519;52.540;13.410;2023-04-21T01:48:01;101065.34;;;8.92;100.00
52625;BME280;38519;52.540;13.410;2023-04-21T01:50:27;101064.94;;;8.88;100.00
52625;BME280;38519;52.540;13.410;2023-04-21T01:52:53;101064.94;;;8.98;100.00
52625;BME280;38519;52.540;13.410;2023-04-21T01:55:19;101069.13;;;8.96;100.00
52625;BME280;38519;52.540;13.410;2023-04-21T01:57:44;101058.16;;;8.90;100.00
52625;BME280;38519;52.540;13.410;2023-04-21T02:00:09;101057.00;;;8.86;100.00
52625;BME280;38519;52.540;13.410;2023-04-21T02:02:35;101056.47;;;8.80;100.00
52625;BME280;38519;52.540;13.410;2023-04-21T02:05:00;101055.31;;;8.77;100.00
52625;BME280;38519;52.540;13.410;2023-04-21T02:07:25;101051.81;;;8.86;100.00
52625;BME280;38519;52.540;13.410;2023-04-21T02:09:51;101054.53;;;8.88;100.00
52625;BME280;38519;52.540;13.410;2023-04-21T02:12:16;101061.81;;;8.92;100.00
52625;BME280;38519;52.540;13.410;2023-04-21T02:14:41;101057.13;;;8.88;100.00
52625;BME280;38519;52.540;13.410;2023-04-21T02:17:06;101053.72;;;8.89;100.00
52625;BME280;38519;52.540;13.410;2023-04-21T02:19:32;101052.03;;;8.79;100.00
52625;BME280;38519;52.540;13.410;2023-04-21T02:21:57;101053.75;;;8.79;100.00
52625;BME280;38519;52.540;13.410;2023-04-21T02:24:22;101043.06;;;8.75;100.00
52625;BME280;38519;52.540;13.410;2023-04-21T02:26:47;101049.56;;;8.70;100.00
52625;BME280;38519;52.540;13.410;2023-04-21T02:29:13;101047.78;;;8.80;100.00
52625;BME280;38519;52.540;13.410;2023-04-21T02:31:38;101051.78;;;8.76;100.00
52625;BME280;38519;52.540;13.410;2023-04-21T02:34:03;101056.84;;;8.74;100.00
52625;BME280;38519;52.540;13.410;2023-04-21T02:36:29;101047.22;;;8.84;100.00
52625;BME280;38519;52.540;13.410;2023-04-21T02:38:54;101042.53;;;8.69;100.00
52625;BME280;38519;52.540;13.410;2023-04-21T02:41:20;101052.56;;;8.65;100.00
52625;BME280;38519;52.540;13.410;2023-04-21T02:43:45;101046.31;;;8.73;100.00
52625;BME280;38519;52.540;13.410;2023-04-21T02:46:10;101050.63;;;8.72;100.00
52625;BME280;38519;52.540;13.410;2023-04-21T02:48:35;101050.34;;;8.69;100.00
52625;BME280;38519;52.540;13.410;2023-04-21T02:51:01;101048.78;;;8.61;100.00
52625;BME280;38519;52.540;13.410;2023-04-21T02:53:26;101052.41;;;8.63;100.00
52625;BME280;38519;52.540;13.410;2023-04-21T02:55:52;101046.81;;;8.59;100.00
52625;BME280;38519;52.540;13.410;2023-04-21T02:58:17;101049.69;;;8.62;100.00
52625;BME280;38519;52.540;13.410;2023-04-21T03:00:42;101048.78;;;8.61;100.00
52625;BME280;38519;52.540;13.410;2023-04-21T03:03:07;101043.31;;;8.58;100.00
52625;BME280;38519;52.540;13.410;2023-04-21T03:05:33;101042.78;;;8.52;100.00
52625;BME280;38519;52.540;13.410;2023-04-21T03:07:58;101041.47;;;8.47;100.00
52625;BME280;38519;52.540;13.410;2023-04-21T03:10:23;101041.03;;;8.42;100.00
52625;BME280;38519;52.540;13.410;2023-04-21T03:12:48;101038.59;;;8.44;100.00
52625;BME280;38519;52.540;13.410;2023-04-21T03:15:14;101041.94;;;8.43;100.00
52625;BME280;38519;52.540;13.410;2023-04-21T03:17:39;101037.84;;;8.45;100.00
52625;BME280;38519;52.540;13.410;2023-04-21T03:20:05;101036.50;;;8.39;100.00
52625;BME280;38519;52.540;13.410;2023-04-21T03:22:32;101036.31;;;8.28;100.00
52625;BME280;38519;52.540;13.410;2023-04-21T03:24:57;101043.38;;;8.39;100.00
52625;BME280;38519;52.540;13.410;2023-04-21T03:27:22;101045.97;;;8.29;100.00
52625;BME280;38519;52.540;13.410;2023-04-21T03:29:48;101039.47;;;8.34;100.00
52625;BME280;38519;52.540;13.410;2023-04-21T03:32:13;101037.75;;;8.24;100.00
52625;BME280;38519;52.540;13.410;2023-04-21T03:34:39;101045.69;;;8.26;100.00
52625;BME280;38519;52.540;13.410;2023-04-21T03:37:04;101039.31;;;8.22;100.00
52625;BME280;38519;52.540;13.410;2023-04-21T03:39:30;101043.22;;;8.27;100.00
52625;BME280;38519;52.540;13.410;2023-04-21T03:41:55;101039.19;;;8.20;100.00
52625;BME280;38519;52.540;13.410;2023-04-21T03:44:23;101045.91;;;8.18;100.00
52625;BME280;38519;52.540;13.410;2023-04-21T03:46:51;101038.50;;;8.13;100.00
52625;BME280;38519;52.540;13.410;2023-04-21T03:49:16;101040.84;;;8.20;100.00
52625;BME280;38519;52.540;13.410;2023-04-21T03:51:42;101042.28;;;8.16;100.00
52625;BME280;38519;52.540;13.410;2023-04-21T03:54:07;101045.16;;;8.19;100.00
52625;BME280;38519;52.540;13.410;2023-04-21T03:56:32;101046.31;;;8.13;100.00
52625;BME280;38519;52.540;13.410;2023-04-21T03:58:59;101054.34;;;8.06;100.00
52625;BME280;38519;52.540;13.410;2023-04-21T04:01:25;101050.84;;;8.05;100.00
52625;BME280;38519;52.540;13.410;2023-04-21T04:03:51;101048.91;;;8.02;100.00
52625;BME280;38519;52.540;13.410;2023-04-21T04:06:16;101049.53;;;8.10;100.00
52625;BME280;38519;52.540;13.410;2023-04-21T04:08:41;101048.22;;;8.05;100.00
52625;BME280;38519;52.540;13.410;2023-04-21T04:11:06;101044.59;;;8.03;100.00
52625;BME280;38519;52.540;13.410;2023-04-21T04:13:32;101047.59;;;8.08;100.00
52625;BME280;38519;52.540;13.410;2023-04-21T04:15:57;101048.50;;;8.08;100.00
52625;BME280;38519;52.540;13.410;2023-04-21T04:18:22;101052.56;;;8.15;100.00
52625;BME280;38519;52.540;13.410;2023-04-21T04:20:48;101052.81;;;8.08;100.00
52625;BME280;38519;52.540;13.410;2023-04-21T04:23:13;101054.47;;;8.07;100.00
52625;BME280;38519;52.540;13.410;2023-04-21T04:25:38;101061.38;;;8.07;100.00
52625;BME280;38519;52.540;13.410;2023-04-21T04:28:04;101055.91;;;8.03;100.00
52625;BME280;38519;52.540;13.410;2023-04-21T04:30:31;101059.28;;;8.02;100.00
52625;BME280;38519;52.540;13.410;2023-04-21T04:32:57;101060.34;;;8.05;100.00
52625;BME280;38519;52.540;13.410;2023-04-21T04:35:22;101062.69;;;8.12;100.00
52625;BME280;38519;52.540;13.410;2023-04-21T04:37:48;101061.16;;;8.14;100.00
52625;BME280;38519;52.540;13.410;2023-04-21T04:40:13;101061.91;;;8.13;100.00
52625;BME280;38519;52.540;13.410;2023-04-21T04:42:39;101058.00;;;8.08;100.00
52625;BME280;38519;52.540;13.410;2023-04-21T04:45:05;101067.88;;;8.01;100.00
52625;BME280;38519;52.540;13.410;2023-04-21T04:47:32;101062.38;;;7.98;100.00
52625;BME280;38519;52.540;13.410;2023-04-21T04:49:57;101059.03;;;7.99;100.00
52625;BME280;38519;52.540;13.410;2023-04-21T04:52:22;101063.84;;;8.05;100.00
52625;BME280;38519;52.540;13.410;2023-04-21T04:54:50;101064.50;;;8.02;100.00
52625;BME280;38519;52.540;13.410;2023-04-21T04:57:15;101059.78;;;7.98;100.00
52625;BME280;38519;52.540;13.410;2023-04-21T04:59:40;101065.53;;;8.05;100.00
52625;BME280;38519;52.540;13.410;2023-04-21T05:02:06;101064.13;;;8.08;100.00
52625;BME280;38519;52.540;13.410;2023-04-21T05:04:32;101073.78;;;8.19;100.00
52625;BME280;38519;52.540;13.410;2023-04-21T05:06:57;101072.06;;;8.20;100.00
52625;BME280;38519;52.540;13.410;2023-04-21T05:09:22;101076.38;;;8.19;100.00
52625;BME280;38519;52.540;13.410;2023-04-21T05:11:48;101076.78;;;8.24;100.00
52625;BME280;38519;52.540;13.410;2023-04-21T05:14:13;101073.69;;;8.28;100.00
52625;BME280;38519;52.540;13.410;2023-04-21T05:16:44;101070.81;;;8.25;100.00
52625;BME280;38519;52.540;13.410;2023-04-21T05:19:09;101071.56;;;8.24;100.00
52625;BME280;38519;52.540;13.410;2023-04-21T05:21:34;101075.25;;;8.36;100.00
52625;BME280;38519;52.540;13.410;2023-04-21T05:24:00;101072.56;;;8.45;100.00
52625;BME280;38519;52.540;13.410;2023-04-21T05:26:25;101077.81;;;8.55;100.00
52625;BME280;38519;52.540;13.410;2023-04-21T05:28:52;101078.31;;;8.62;99.97
52625;BME280;38519;52.540;13.410;2023-04-21T05:31:17;101074.53;;;8.58;100.00
52625;BME280;38519;52.540;13.410;2023-04-21T05:33:42;101079.47;;;8.55;100.00
52625;BME280;38519;52.540;13.410;2023-04-21T05:36:08;101071.53;;;8.53;100.00
52625;BME280;38519;52.540;13.410;2023-04-21T05:38:34;101072.84;;;8.59;100.00
52625;BME280;38519;52.540;13.410;2023-04-21T05:40:59;101078.34;;;8.72;99.14
52625;BME280;38519;52.540;13.410;2023-04-21T05:43:24;101075.34;;;8.78;99.28
52625;BME280;38519;52.540;13.410;2023-04-21T05:45:49;101074.97;;;8.83;99.07
52625;BME280;38519;52.540;13.410;2023-04-21T05:48:15;101075.25;;;8.86;98.40
52625;BME280;38519;52.540;13.410;2023-04-21T05:50:40;101075.09;;;8.95;98.05
52625;BME280;38519;52.540;13.410;2023-04-21T05:53:05;101074.06;;;9.14;95.68
52625;BME280;38519;52.540;13.410;2023-04-21T05:55:32;101077.81;;;9.17;96.21
52625;BME280;38519;52.540;13.410;2023-04-21T05:57:57;101072.75;;;9.19;96.14
52625;BME280;38519;52.540;13.410;2023-04-21T06:00:23;101073.00;;;9.22;96.03
52625;BME280;38519;52.540;13.410;2023-04-21T06:02:48;101072.47;;;9.26;94.86
52625;BME280;38519;52.540;13.410;2023-04-21T06:05:13;101073.38;;;9.37;94.11
52625;BME280;38519;52.540;13.410;2023-04-21T06:07:38;101067.09;;;9.45;92.79
52625;BME280;38519;52.540;13.410;2023-04-21T06:10:04;101071.91;;;9.51;92.98
52625;BME280;38519;52.540;13.410;2023-04-21T06:12:29;101063.81;;;9.58;91.96
52625;BME280;38519;52.540;13.410;2023-04-21T06:14:54;101065.75;;;9.60;92.25
52625;BME280;38519;52.540;13.410;2023-04-21T06:17:22;101067.03;;;9.65;91.60
52625;BME280;38519;52.540;13.410;2023-04-21T06:19:47;101065.84;;;9.72;91.02
52625;BME280;38519;52.540;13.410;2023-04-21T06:22:17;101073.22;;;9.88;89.57
52625;BME280;38519;52.540;13.410;2023-04-21T06:24:42;101064.31;;;9.96;88.53
52625;BME280;38519;52.540;13.410;2023-04-21T06:27:10;101062.91;;;10.00;89.05
52625;BME280;38519;52.540;13.410;2023-04-21T06:29:39;101060.09;;;10.09;88.40
52625;BME280;38519;52.540;13.410;2023-04-21T06:32:04;101061.75;;;10.18;87.13
52625;BME280;38519;52.540;13.410;2023-04-21T06:34:30;101068.22;;;10.24;87.63
52625;BME280;38519;52.540;13.410;2023-04-21T06:36:55;101064.69;;;10.33;85.70
52625;BME280;38519;52.540;13.410;2023-04-21T06:39:20;101065.53;;;10.44;84.50
52625;BME280;38519;52.540;13.410;2023-04-21T06:41:46;101057.31;;;10.50;84.03
52625;BME280;38519;52.540;13.410;2023-04-21T06:44:11;101055.38;;;10.59;83.90
52625;BME280;38519;52.540;13.410;2023-04-21T06:46:38;101059.97;;;10.73;82.92
52625;BME280;38519;52.540;13.410;2023-04-21T06:49:04;101058.34;;;10.98;82.22
52625;BME280;38519;52.540;13.410;2023-04-21T06:51:30;101055.53;;;11.06;80.57
52625;BME280;38519;52.540;13.410;2023-04-21T06:53:56;101047.28;;;11.36;78.80
52625;BME280;38519;52.540;13.410;2023-04-21T06:56:21;101045.56;;;11.24;78.83
52625;BME280;38519;52.540;13.410;2023-04-21T06:58:46;101041.00;;;11.22;79.90
52625;BME280;38519;52.540;13.410;2023-04-21T07:01:11;101045.22;;;11.20;79.83
52625;BME280;38519;52.540;13.410;2023-04-21T07:03:37;101044.31;;;11.19;80.04
52625;BME280;38519;52.540;13.410;2023-04-21T07:06:02;101047.06;;;11.21;79.50
52625;BME280;38519;52.540;13.410;2023-04-21T07:08:27;101050.25;;;11.28;79.00
52625;BME280;38519;52.540;13.410;2023-04-21T07:10:53;101049.00;;;11.35;78.51
52625;BME280;38519;52.540;13.410;2023-04-21T07:13:18;101041.94;;;11.46;77.21
52625;BME280;38519;52.540;13.410;2023-04-21T07:15:43;101047.06;;;11.56;77.88
52625;BME280;38519;52.540;13.410;2023-04-21T07:18:09;101042.94;;;11.72;77.55
52625;BME280;38519;52.540;13.410;2023-04-21T07:20:34;101046.25;;;11.81;76.19
52625;BME280;38519;52.540;13.410;2023-04-21T07:23:02;101045.91;;;11.88;75.86
52625;BME280;38519;52.540;13.410;2023-04-21T07:25:28;101047.97;;;11.92;75.73
52625;BME280;38519;52.540;13.410;2023-04-21T07:27:53;101043.06;;;11.97;76.02
52625;BME280;38519;52.540;13.410;2023-04-21T07:30:18;101045.59;;;12.07;74.80
52625;BME280;38519;52.540;13.410;2023-04-21T07:32:47;101041.53;;;12.24;74.93
52625;BME280;38519;52.540;13.410;2023-04-21T07:35:12;101040.97;;;12.28;74.26
52625;BME280;38519;52.540;13.410;2023-04-21T07:37:38;101041.41;;;12.34;73.99
52625;BME280;38519;52.540;13.410;2023-04-21T07:40:06;101045.16;;;12.38;73.92
52625;BME280;38519;52.540;13.410;2023-04-21T07:42:32;101037.72;;;12.44;73.86
52625;BME280;38519;52.540;13.410;2023-04-21T07:44:57;101039.50;;;12.57;73.86
52625;BME280;38519;52.540;13.410;2023-04-21T07:47:25;101042.47;;;12.75;72.54
52625;BME280;38519;52.540;13.410;2023-04-21T07:49:50;101040.28;;;12.81;71.16
52625;BME280;38519;52.540;13.410;2023-04-21T07:52:15;101042.84;;;12.93;71.52
52625;BME280;38519;52.540;13.410;2023-04-21T07:54:41;101042.50;;;12.88;70.46
52625;BME280;38519;52.540;13.410;2023-04-21T07:57:06;101039.94;;;13.02;70.15
52625;BME280;38519;52.540;13.410;2023-04-21T07:59:32;101036.84;;;13.21;70.56
52625;BME280;38519;52.540;13.410;2023-04-21T08:01:57;101041.59;;;13.26;70.13
52625;BME280;38519;52.540;13.410;2023-04-21T08:04:22;101039.88;;;13.27;70.26
52625;BME280;38519;52.540;13.410;2023-04-21T08:06:47;101039.97;;;13.28;69.37
52625;BME280;38519;52.540;13.410;2023-04-21T08:09:13;101043.56;;;13.42;69.20
52625;BME280;38519;52.540;13.410;2023-04-21T08:11:38;101039.84;;;13.52;68.69
52625;BME280;38519;52.540;13.410;2023-04-21T08:14:03;101048.00;;;13.57;68.39
52625;BME280;38519;52.540;13.410;2023-04-21T08:16:29;101046.19;;;13.69;68.52
52625;BME280;38519;52.540;13.410;2023-04-21T08:18:54;101045.78;;;13.76;68.36
52625;BME280;38519;52.540;13.410;2023-04-21T08:21:20;101038.13;;;13.79;67.77
52625;BME280;38519;52.540;13.410;2023-04-21T08:23:48;101034.47;;;13.91;67.34
52625;BME280;38519;52.540;13.410;2023-04-21T08:26:17;101035.06;;;14.00;68.37
52625;BME280;38519;52.540;13.410;2023-04-21T08:28:45;101029.19;;;14.17;67.66
52625;BME280;38519;52.540;13.410;2023-04-21T08:31:17;101034.72;;;14.09;67.29
52625;BME280;38519;52.540;13.410;2023-04-21T08:33:42;101029.19;;;14.04;67.11
52625;BME280;38519;52.540;13.410;2023-04-21T08:36:08;101035.53;;;14.21;67.63
52625;BME280;38519;52.540;13.410;2023-04-21T08:38:37;101033.88;;;14.23;65.98
52625;BME280;38519;52.540;13.410;2023-04-21T08:41:03;101031.13;;;14.35;66.83
52625;BME280;38519;52.540;13.410;2023-04-21T08:43:28;101024.34;;;14.38;65.77
52625;BME280;38519;52.540;13.410;2023-04-21T08:45:54;101028.75;;;14.53;66.20
52625;BME280;38519;52.540;13.410;2023-04-21T08:48:21;101028.00;;;14.69;66.14
52625;BME280;38519;52.540;13.410;2023-04-21T08:50:50;101029.44;;;14.64;64.92
52625;BME280;38519;52.540;13.410;2023-04-21T08:53:16;101026.56;;;14.74;66.16
52625;BME280;38519;52.540;13.410;2023-04-21T08:55:42;101026.84;;;14.93;66.05
52625;BME280;38519;52.540;13.410;2023-04-21T08:58:08;101025.78;;;15.05;65.56
52625;BME280;38519;52.540;13.410;2023-04-21T09:00:36;101021.50;;;15.07;65.88
52625;BME280;38519;52.540;13.410;2023-04-21T09:03:02;101025.69;;;15.18;65.92
52625;BME280;38519;52.540;13.410;2023-04-21T09:05:30;101022.63;;;15.10;66.04
52625;BME280;38519;52.540;13.410;2023-04-21T09:10:41;101024.31;;;15.10;67.26
52625;BME280;38519;52.540;13.410;2023-04-21T09:13:06;101021.97;;;15.29;66.02
52625;BME280;38519;52.540;13.410;2023-04-21T09:15:46;101027.50;;;15.49;65.27
52625;BME280;38519;52.540;13.410;2023-04-21T09:18:15;101031.84;;;15.63;64.75
52625;BME280;38519;52.540;13.410;2023-04-21T09:20:41;101022.75;;;15.73;64.86
52625;BME280;38519;52.540;13.410;2023-04-21T09:23:08;101025.28;;;15.72;65.79
52625;BME280;38519;52.540;13.410;2023-04-21T09:25:33;101032.00;;;15.81;64.74
52625;BME280;38519;52.540;13.410;2023-04-21T09:28:00;101025.00;;;15.82;65.64
52625;BME280;38519;52.540;13.410;2023-04-21T09:30:25;101023.69;;;16.05;64.72
52625;BME280;38519;52.540;13.410;2023-04-21T09:32:51;101023.44;;;16.17;64.09
52625;BME280;38519;52.540;13.410;2023-04-21T09:35:20;101022.38;;;16.13;65.13
52625;BME280;38519;52.540;13.410;2023-04-21T09:37:46;101032.41;;;16.37;63.21
52625;BME280;38519;52.540;13.410;2023-04-21T09:40:12;101021.31;;;16.26;64.69
52625;BME280;38519;52.540;13.410;2023-04-21T09:42:39;101017.59;;;16.23;64.18
52625;BME280;38519;52.540;13.410;2023-04-21T09:45:05;101014.72;;;16.51;63.17
52625;BME280;38519;52.540;13.410;2023-04-21T09:47:31;101019.34;;;16.71;62.29
52625;BME280;38519;52.540;13.410;2023-04-21T09:50:00;101018.13;;;16.65;63.66
52625;BME280;38519;52.540;13.410;2023-04-21T09:52:26;101014.47;;;16.79;63.81
52625;BME280;38519;52.540;13.410;2023-04-21T09:54:56;101005.25;;;16.87;63.45
52625;BME280;38519;52.540;13.410;2023-04-21T09:57:24;101012.97;;;17.01;62.40
52625;BME280;38519;52.540;13.410;2023-04-21T09:59:59;101019.31;;;17.04;62.07
52625;BME280;38519;52.540;13.410;2023-04-21T10:02:42;101008.06;;;16.90;63.98
52625;BME280;38519;52.540;13.410;2023-04-21T10:05:08;101010.44;;;17.20;63.58
52625;BME280;38519;52.540;13.410;2023-04-21T10:07:34;101009.75;;;17.06;64.43
52625;BME280;38519;52.540;13.410;2023-04-21T10:09:59;101012.13;;;17.36;63.31
52625;BME280;38519;52.540;13.410;2023-04-21T10:12:25;101010.09;;;17.48;60.57
52625;BME280;38519;52.540;13.410;2023-04-21T10:14:51;101008.19;;;17.46;62.25
52625;BME280;38519;52.540;13.410;2023-04-21T10:17:17;101005.63;;;17.65;61.22
52625;BME280;38519;52.540;13.410;2023-04-21T10:19:50;101008.34;;;17.67;61.12
52625;BME280;38519;52.540;13.410;2023-04-21T10:22:24;101000.28;;;17.64;61.94
52625;BME280;38519;52.540;13.410;2023-04-21T10:24:50;100997.03;;;17.70;62.21
52625;BME280;38519;52.540;13.410;2023-04-21T10:27:40;100997.13;;;17.71;62.01
52625;BME280;38519;52.540;13.410;2023-04-21T10:32:43;100988.22;;;17.51;62.59
52625;BME280;38519;52.540;13.410;2023-04-21T10:35:12;100987.22;;;17.67;61.98
52625;BME280;38519;52.540;13.410;2023-04-21T10:37:39;100984.66;;;17.87;61.96
52625;BME280;38519;52.540;13.410;2023-04-21T10:40:05;100986.72;;;18.12;62.11
52625;BME280;38519;52.540;13.410;2023-04-21T10:42:36;100983.13;;;18.10;61.90
52625;BME280;38519;52.540;13.410;2023-04-21T10:45:05;100983.19;;;18.11;61.79
52625;BME280;38519;52.540;13.410;2023-04-21T10:50:17;100975.78;;;18.42;61.86
52625;BME280;38519;52.540;13.410;2023-04-21T10:53:29;100977.63;;;18.44;62.16
52625;BME280;38519;52.540;13.410;2023-04-21T10:55:30;100974.88;;;18.41;63.21
52625;BME280;38519;52.540;13.410;2023-04-21T10:57:55;100972.28;;;18.23;62.59
52625;BME280;38519;52.540;13.410;2023-04-21T11:00:21;100959.28;;;18.28;62.13
52625;BME280;38519;52.540;13.410;2023-04-21T11:02:57;100952.72;;;18.39;62.24
52625;BME280;38519;52.540;13.410;2023-04-21T11:05:26;100961.09;;;18.48;62.74
52625;BME280;38519;52.540;13.410;2023-04-21T11:08:00;100952.97;;;18.65;62.78
52625;BME280;38519;52.540;13.410;2023-04-21T11:10:25;100950.94;;;18.38;63.69
52625;BME280;38519;52.540;13.410;2023-04-21T11:12:51;100945.97;;;18.65;63.38
52625;BME280;38519;52.540;13.410;2023-04-21T11:15:21;100939.97;;;18.69;63.19
52625;BME280;38519;52.540;13.410;2023-04-21T11:17:46;100943.81;;;18.56;63.89
52625;BME280;38519;52.540;13.410;2023-04-21T11:20:11;100939.47;;;18.78;63.82
52625;BME280;38519;52.540;13.410;2023-04-21T11:22:37;100936.63;;;18.73;64.11
52625;BME280;38519;52.540;13.410;2023-04-21T11:25:03;100938.47;;;18.96;63.17
52625;BME280;38519;52.540;13.410;2023-04-21T11:27:29;100933.91;;;18.91;64.06
52625;BME280;38519;52.540;13.410;2023-04-21T11:29:55;100929.44;;;18.90;64.11
52625;BME280;38519;52.540;13.410;2023-04-21T11:32:21;100929.19;;;18.65;64.28
52625;BME280;38519;52.540;13.410;2023-04-21T11:34:46;100918.25;;;18.57;64.43
52625;BME280;38519;52.540;13.410;2023-04-21T11:37:15;100927.91;;;18.76;64.27
52625;BME280;38519;52.540;13.410;2023-04-21T11:39:41;100928.47;;;18.88;64.71
52625;BME280;38519;52.540;13.410;2023-04-21T11:42:08;100928.13;;;19.02;63.80
52625;BME280;38519;52.540;13.410;2023-04-21T11:44:37;100921.38;;;19.08;63.25
52625;BME280;38519;52.540;13.410;2023-04-21T11:47:16;100918.78;;;19.10;63.50
52625;BME280;38519;52.540;13.410;2023-04-21T11:52:11;100909.59;;;19.23;62.39
52625;BME280;38519;52.540;13.410;2023-04-21T11:54:44;100922.16;;;19.06;63.38
52625;BME280;38519;52.540;13.410;2023-04-21T11:57:09;100919.47;;;19.27;62.39
52625;BME280;38519;52.540;13.410;2023-04-21T11:59:35;100921.59;;;19.36;62.38
52625;BME280;38519;52.540;13.410;2023-04-21T12:02:00;100920.84;;;19.17;64.22
52625;BME280;38519;52.540;13.410;2023-04-21T12:04:25;100916.25;;;18.92;65.58
52625;BME280;38519;52.540;13.410;2023-04-21T12:06:58;100901.16;;;19.10;64.76
52625;BME280;38519;52.540;13.410;2023-04-21T12:09:24;100908.19;;;19.31;65.09
52625;BME280;38519;52.540;13.410;2023-04-21T12:11:50;100901.91;;;19.52;64.33
52625;BME280;38519;52.540;13.410;2023-04-21T12:14:20;100907.06;;;19.47;62.68
52625;BME280;38519;52.540;13.410;2023-04-21T12:16:55;100911.66;;;19.75;62.02
52625;BME280;38519;52.540;13.410;2023-04-21T12:19:21;100913.53;;;19.33;62.98
52625;BME280;38519;52.540;13.410;2023-04-21T12:21:51;100900.25;;;19.31;64.68
52625;BME280;38519;52.540;13.410;2023-04-21T12:24:16;100895.84;;;19.54;63.55
52625;BME280;38519;52.540;13.410;2023-04-21T12:26:42;100893.53;;;19.85;63.62
52625;BME280;38519;52.540;13.410;2023-04-21T12:29:08;100885.44;;;19.81;63.60
52625;BME280;38519;52.540;13.410;2023-04-21T12:31:34;100888.75;;;19.76;64.01
52625;BME280;38519;52.540;13.410;2023-04-21T12:33:59;100882.00;;;19.61;64.89
52625;BME280;38519;52.540;13.410;2023-04-21T12:36:25;100881.34;;;19.90;63.08
52625;BME280;38519;52.540;13.410;2023-04-21T12:38:51;100867.97;;;19.64;64.29
52625;BME280;38519;52.540;13.410;2023-04-21T12:41:17;100893.69;;;19.89;63.41
52625;BME280;38519;52.540;13.410;2023-04-21T12:43:42;100885.41;;;20.04;63.85
52625;BME280;38519;52.540;13.410;2023-04-21T12:46:07;100878.81;;;20.17;62.96